createdAt,value
2018-08-28T00:00:12.407Z,18.35
2018-08-28T00:03:16.672Z,18.42
2018-08-28T00:06:20.114Z,18.53
2018-08-28T00:09:23.995Z,18.57
2018-08-28T00:12:27.451Z,18.58
2018-08-28T00:15:30.703Z,18.55
2018-08-28T00:18:34.032Z,18.56
2018-08-28T00:21:37.309Z,18.51
2018-08-28T00:24:40.610Z,18.42
2018-08-28T00:27:43.889Z,18.42
2018-08-28T00:30:47.398Z,18.34
2018-08-28T00:33:51.609Z,18.33
2018-08-28T00:36:55.631Z,18.25
2018-08-28T00:39:58.799Z,18.19
2018-08-28T00:43:02.191Z,18.13
2018-08-28T00:46:05.437Z,18.07
2018-08-28T00:49:08.748Z,18.07
2018-08-28T00:52:13.047Z,18.04
2018-08-28T00:55:16.337Z,17.93
2018-08-28T00:58:20.554Z,17.74
2018-08-28T01:01:24.865Z,17.65
2018-08-28T01:04:28.166Z,17.66
2018-08-28T01:07:31.470Z,17.70
2018-08-28T01:10:34.789Z,17.76
2018-08-28T01:13:38.134Z,17.78
2018-08-28T01:16:41.479Z,17.77
2018-08-28T01:19:44.772Z,17.78
2018-08-28T01:22:48.075Z,17.78
2018-08-28T01:25:51.364Z,17.78
2018-08-28T01:28:55.361Z,17.76
2018-08-28T01:31:58.605Z,17.73
2018-08-28T01:35:01.849Z,17.66
2018-08-28T01:38:05.157Z,17.63
2018-08-28T01:41:08.347Z,17.58
2018-08-28T01:44:11.669Z,17.45
2018-08-28T01:47:14.872Z,17.39
2018-08-28T01:50:18.146Z,17.10
2018-08-28T01:53:21.689Z,17.14
2018-08-28T01:56:26.005Z,17.23
2018-08-28T01:59:29.136Z,17.21
2018-08-28T02:02:32.350Z,17.25
2018-08-28T02:05:35.694Z,17.14
2018-08-28T02:08:39.260Z,17.06
2018-08-28T02:11:42.598Z,16.98
2018-08-28T02:14:45.863Z,16.95
2018-08-28T02:17:49.056Z,16.97
2018-08-28T02:20:52.334Z,16.94
2018-08-28T02:23:55.786Z,16.98
2018-08-28T02:26:59.085Z,16.99
2018-08-28T02:30:02.481Z,17.00
2018-08-28T02:33:05.881Z,16.93
2018-08-28T02:36:09.293Z,16.80
2018-08-28T02:39:12.580Z,16.71
2018-08-28T02:42:15.858Z,16.57
2018-08-28T02:45:19.224Z,16.60
2018-08-28T02:48:23.162Z,16.54
2018-08-28T02:51:26.358Z,16.58
2018-08-28T02:54:29.651Z,16.57
2018-08-28T02:57:32.926Z,16.56
2018-08-28T03:00:36.319Z,16.58
2018-08-28T03:03:39.557Z,16.58
2018-08-28T03:06:42.872Z,16.54
2018-08-28T03:09:46.150Z,16.37
2018-08-28T03:12:49.423Z,16.26
2018-08-28T03:15:53.179Z,16.14
2018-08-28T03:18:56.344Z,16.09
2018-08-28T03:21:59.613Z,16.13
2018-08-28T03:25:03.162Z,16.15
2018-08-28T03:28:06.568Z,16.09
2018-08-28T03:31:09.895Z,16.00
2018-08-28T03:34:14.263Z,15.93
2018-08-28T03:37:17.543Z,15.87
2018-08-28T03:40:20.881Z,15.75
2018-08-28T03:43:25.671Z,15.59
2018-08-28T03:46:28.968Z,15.37
2018-08-28T03:49:32.276Z,15.23
2018-08-28T03:52:35.675Z,15.21
2018-08-28T03:55:38.973Z,15.12
2018-08-28T03:58:42.263Z,15.13
2018-08-28T04:01:45.570Z,15.20
2018-08-28T04:04:49.781Z,15.31
2018-08-28T04:07:54.066Z,15.36
2018-08-28T04:10:58.343Z,15.27
2018-08-28T04:14:03.581Z,15.21
2018-08-28T04:17:06.889Z,15.26
2018-08-28T04:20:10.097Z,15.24
2018-08-28T04:23:13.493Z,15.22
2018-08-28T04:26:16.754Z,15.19
2018-08-28T04:29:20.085Z,15.20
2018-08-28T04:32:24.281Z,15.22
2018-08-28T04:35:27.584Z,15.28
2018-08-28T04:38:31.163Z,15.24
2018-08-28T04:41:34.577Z,15.18
2018-08-28T04:44:37.927Z,15.20
2018-08-28T04:47:41.224Z,15.21
2018-08-28T04:50:44.468Z,15.21
2018-08-28T04:53:47.866Z,15.19
2018-08-28T04:56:51.205Z,15.20
2018-08-28T04:59:55.193Z,15.21
2018-08-28T05:02:58.457Z,15.21
2018-08-28T05:06:01.796Z,15.16
2018-08-28T05:09:06.332Z,15.17
2018-08-28T05:12:09.481Z,15.28
2018-08-28T05:15:12.787Z,15.24
2018-08-28T05:18:15.974Z,15.19
2018-08-28T05:21:19.283Z,15.28
2018-08-28T05:24:23.239Z,15.38
2018-08-28T05:27:26.364Z,15.38
2018-08-28T05:30:29.737Z,15.27
2018-08-28T05:33:34.111Z,15.30
2018-08-28T05:36:37.516Z,15.35
2018-08-28T05:39:40.881Z,15.47
2018-08-28T05:42:44.318Z,15.56
2018-08-28T05:45:47.908Z,15.72
2018-08-28T05:48:51.231Z,15.88
2018-08-28T05:51:56.128Z,16.03
2018-08-28T05:54:59.438Z,16.16
2018-08-28T05:58:04.754Z,16.22
2018-08-28T06:01:07.930Z,16.32
2018-08-28T06:04:11.591Z,16.43
2018-08-28T06:07:14.833Z,16.54
2018-08-28T06:10:18.025Z,16.59
2018-08-28T06:13:21.475Z,16.69
2018-08-28T06:16:25.954Z,16.79
2018-08-28T06:19:29.354Z,16.78
2018-08-28T06:22:32.689Z,16.89
2018-08-28T06:25:36.902Z,16.94
2018-08-28T06:28:40.273Z,16.90
2018-08-28T06:31:43.530Z,16.82
2018-08-28T06:34:46.789Z,16.92
2018-08-28T06:37:50.067Z,16.97
2018-08-28T06:40:53.360Z,16.97
2018-08-28T06:43:56.647Z,16.98
2018-08-28T06:46:59.806Z,17.10
2018-08-28T06:50:03.253Z,17.16
2018-08-28T06:53:06.423Z,17.25
2018-08-28T06:56:09.762Z,17.28
2018-08-28T06:59:12.994Z,17.33
2018-08-28T07:02:16.295Z,17.47
2018-08-28T07:05:20.556Z,17.43
2018-08-28T07:08:23.943Z,17.59
2018-08-28T07:11:27.266Z,17.81
2018-08-28T07:14:30.551Z,17.90
2018-08-28T07:17:33.803Z,18.03
2018-08-28T07:20:37.094Z,18.20
2018-08-28T07:23:40.459Z,18.34
2018-08-28T07:26:43.690Z,18.24
2018-08-28T07:29:47.023Z,18.16
2018-08-28T07:32:50.305Z,18.29
2018-08-28T07:35:54.391Z,18.55
2018-08-28T07:38:57.604Z,18.67
2018-08-28T07:42:01.023Z,18.49
2018-08-28T07:45:04.360Z,18.58
2018-08-28T07:48:07.764Z,18.65
2018-08-28T07:51:10.994Z,18.72
2018-08-28T07:54:14.215Z,18.83
2018-08-28T07:57:17.486Z,19.13
2018-08-28T08:00:20.604Z,19.37
2018-08-28T08:03:24.874Z,19.35
2018-08-28T08:06:28.108Z,19.29
2018-08-28T08:09:31.280Z,19.27
2018-08-28T08:12:34.591Z,19.49
2018-08-28T08:15:38.871Z,19.56
2018-08-28T08:18:42.181Z,19.72
2018-08-28T08:21:45.443Z,19.81
2018-08-28T08:24:48.571Z,20.07
2018-08-28T08:27:51.922Z,20.23
2018-08-28T08:30:56.067Z,20.43
2018-08-28T08:33:59.347Z,20.56
2018-08-28T08:37:03.983Z,20.63
2018-08-28T08:40:07.290Z,20.56
2018-08-28T08:43:11.484Z,20.63
2018-08-28T08:46:15.133Z,20.86
2018-08-28T08:49:19.399Z,20.99
2018-08-28T08:52:24.317Z,21.12
2018-08-28T08:55:27.626Z,21.16
2018-08-28T08:58:30.965Z,21.25
2018-08-28T09:01:34.240Z,21.38
2018-08-28T09:04:37.647Z,21.52
2018-08-28T09:07:40.919Z,21.44
2018-08-28T09:10:44.115Z,21.33
2018-08-28T09:13:48.439Z,21.56
2018-08-28T09:16:52.391Z,21.72
2018-08-28T09:19:56.866Z,21.66
2018-08-28T09:23:00.167Z,21.55
2018-08-28T09:26:03.461Z,21.71
2018-08-28T09:29:06.872Z,22.04
2018-08-28T09:32:10.209Z,22.32
2018-08-28T09:35:13.472Z,22.23
2018-08-28T09:38:16.825Z,22.01
2018-08-28T09:41:20.004Z,22.19
2018-08-28T09:44:24.039Z,22.57
2018-08-28T09:47:27.391Z,22.49
2018-08-28T09:50:31.207Z,21.99
2018-08-28T09:53:34.427Z,21.61
2018-08-28T09:56:38.137Z,21.92
2018-08-28T09:59:41.318Z,22.27
2018-08-28T10:02:45.691Z,22.79
2018-08-28T10:05:49.068Z,23.13
2018-08-28T10:08:52.445Z,23.32
2018-08-28T10:11:56.444Z,23.11
2018-08-28T10:14:59.761Z,23.22
2018-08-28T10:18:05.106Z,23.19
2018-08-28T10:21:08.383Z,22.69
2018-08-28T10:24:11.547Z,22.64
2018-08-28T10:27:14.883Z,22.79
2018-08-28T10:30:18.598Z,22.72
2018-08-28T10:33:22.090Z,22.55
2018-08-28T10:36:26.680Z,22.69
2018-08-28T10:39:29.911Z,23.01
2018-08-28T10:42:33.214Z,22.95
2018-08-28T10:45:36.527Z,22.90
2018-08-28T10:48:39.921Z,23.00
2018-08-28T10:51:43.198Z,23.19
2018-08-28T10:54:46.555Z,23.14
2018-08-28T10:57:49.793Z,23.14
2018-08-28T11:00:53.526Z,23.30
2018-08-28T11:03:56.819Z,23.73
2018-08-28T11:07:00.006Z,24.13
2018-08-28T11:10:03.560Z,24.07
2018-08-28T11:13:07.159Z,23.89
2018-08-28T11:16:10.590Z,23.83
2018-08-28T11:19:13.944Z,24.00
2018-08-28T11:22:17.297Z,24.21
2018-08-28T11:25:20.486Z,24.48
2018-08-28T11:28:24.486Z,24.71
2018-08-28T11:31:27.882Z,24.85
2018-08-28T11:34:31.172Z,25.00
2018-08-28T11:37:35.466Z,24.88
2018-08-28T11:40:38.813Z,24.94
2018-08-28T11:43:42.006Z,24.47
2018-08-28T11:46:46.181Z,24.04
2018-08-28T11:49:49.480Z,24.00
2018-08-28T11:52:54.451Z,24.08
2018-08-28T11:55:57.701Z,24.13
2018-08-28T11:59:00.963Z,24.34
2018-08-28T12:02:04.502Z,24.36
2018-08-28T12:05:07.845Z,24.82
2018-08-28T12:08:11.099Z,24.82
2018-08-28T12:11:14.446Z,24.88
2018-08-28T12:14:19.844Z,25.00
2018-08-28T12:17:23.090Z,25.05
2018-08-28T12:20:27.886Z,25.14
2018-08-28T12:23:31.384Z,25.42
2018-08-28T12:26:34.980Z,25.39
2018-08-28T12:29:38.848Z,25.40
2018-08-28T12:32:42.096Z,25.40
2018-08-28T12:35:45.296Z,25.60
2018-08-28T12:38:48.758Z,25.80
2018-08-28T12:41:52.192Z,26.12
2018-08-28T12:44:56.103Z,26.14
2018-08-28T12:47:59.503Z,26.37
2018-08-28T12:51:02.790Z,26.35
2018-08-28T12:54:06.217Z,26.23
2018-08-28T12:57:09.599Z,26.34
2018-08-28T13:00:12.739Z,26.17
2018-08-28T13:03:16.055Z,26.46
2018-08-28T13:06:19.349Z,26.55
2018-08-28T13:09:22.715Z,26.57
2018-08-28T13:12:26.216Z,26.66
2018-08-28T13:15:29.467Z,26.78
2018-08-28T13:18:33.402Z,26.75
2018-08-28T13:21:37.026Z,26.71
2018-08-28T13:24:40.324Z,26.77
2018-08-28T13:27:43.855Z,26.62
2018-08-28T13:30:47.135Z,26.83
2018-08-28T13:33:50.367Z,26.67
2018-08-28T13:36:54.618Z,26.80
2018-08-28T13:39:57.790Z,26.83
2018-08-28T13:43:01.082Z,27.07
2018-08-28T13:46:04.496Z,27.10
2018-08-28T13:49:07.887Z,27.03
2018-08-28T13:52:11.237Z,26.95
2018-08-28T13:55:14.825Z,26.68
2018-08-28T13:58:18.136Z,26.86
2018-08-28T14:01:26.224Z,26.88
2018-08-28T14:04:29.521Z,26.92
2018-08-28T14:07:32.844Z,27.04
2018-08-28T14:10:36.160Z,27.04
2018-08-28T14:13:39.559Z,26.86
2018-08-28T14:16:42.893Z,26.64
2018-08-28T14:19:46.541Z,26.74
2018-08-28T14:22:49.921Z,26.85
2018-08-28T14:25:54.864Z,26.74
2018-08-28T14:28:58.260Z,27.09
2018-08-28T14:32:01.657Z,27.35
2018-08-28T14:35:04.949Z,27.19
2018-08-28T14:38:08.322Z,27.08
2018-08-28T14:41:12.102Z,27.26
2018-08-28T14:44:16.393Z,27.49
2018-08-28T14:47:19.639Z,27.92
2018-08-28T14:50:23.801Z,27.96
2018-08-28T14:53:26.856Z,28.25
2018-08-28T14:56:30.206Z,28.27
2018-08-28T14:59:33.429Z,28.50
2018-08-28T15:02:36.788Z,28.21
2018-08-28T15:05:40.162Z,27.81
2018-08-28T15:08:43.530Z,27.92
2018-08-28T15:11:46.923Z,28.24
2018-08-28T15:14:50.142Z,28.50
2018-08-28T15:17:54.623Z,28.66
2018-08-28T15:20:57.997Z,28.68
2018-08-28T15:24:02.435Z,28.58
2018-08-28T15:27:05.793Z,28.58
2018-08-28T15:30:09.063Z,28.60
2018-08-28T15:33:12.374Z,27.92
2018-08-28T15:36:15.721Z,28.12
2018-08-28T15:39:25.592Z,28.31
2018-08-28T15:42:28.831Z,28.57
2018-08-28T15:45:32.138Z,28.55
2018-08-28T15:48:35.577Z,28.50
2018-08-28T15:51:38.753Z,28.52
2018-08-28T15:54:41.944Z,28.30
2018-08-28T15:57:45.235Z,28.25
2018-08-28T16:00:48.409Z,28.29
2018-08-28T16:03:51.883Z,28.39
2018-08-28T16:06:56.165Z,28.42
2018-08-28T16:10:00.527Z,28.54
2018-08-28T16:13:03.796Z,28.67
2018-08-28T16:16:07.928Z,28.81
2018-08-28T16:19:11.156Z,28.66
2018-08-28T16:22:16.671Z,28.49
2018-08-28T16:25:20.089Z,28.25
2018-08-28T16:28:23.860Z,28.12
2018-08-28T16:31:27.111Z,27.80
2018-08-28T16:34:30.484Z,27.80
2018-08-28T16:37:33.758Z,27.50
2018-08-28T16:40:37.032Z,27.43
2018-08-28T16:43:40.448Z,27.35
2018-08-28T16:46:43.744Z,27.27
2018-08-28T16:49:47.059Z,27.25
2018-08-28T16:52:50.383Z,27.29
2018-08-28T16:55:54.559Z,27.35
2018-08-28T16:58:58.047Z,27.30
2018-08-28T17:02:01.475Z,27.23
2018-08-28T17:05:04.791Z,27.15
2018-08-28T17:08:09.063Z,27.07
2018-08-28T17:11:12.311Z,26.94
2018-08-28T17:14:15.595Z,26.85
2018-08-28T17:17:19.015Z,26.77
2018-08-28T17:20:22.304Z,26.74
2018-08-28T17:23:27.256Z,26.67
2018-08-28T17:26:30.581Z,26.57
2018-08-28T17:29:33.892Z,26.51
2018-08-28T17:32:37.064Z,26.40
2018-08-28T17:35:40.447Z,26.38
2018-08-28T17:38:43.771Z,26.35
2018-08-28T17:41:47.055Z,26.26
2018-08-28T17:44:50.361Z,26.19
2018-08-28T17:47:56.787Z,26.07
2018-08-28T17:51:00.123Z,26.01
2018-08-28T17:54:03.432Z,25.97
2018-08-28T17:57:06.912Z,25.92
2018-08-28T18:00:10.074Z,25.86
2018-08-28T18:03:13.369Z,25.77
2018-08-28T18:06:16.531Z,25.68
2018-08-28T18:09:19.760Z,25.57
2018-08-28T18:12:23.105Z,25.46
2018-08-28T18:15:27.288Z,25.36
2018-08-28T18:18:30.640Z,25.20
2018-08-28T18:21:33.950Z,25.06
2018-08-28T18:24:37.135Z,24.94
2018-08-28T18:27:40.491Z,24.81
2018-08-28T18:30:43.749Z,24.68
2018-08-28T18:33:47.011Z,24.56
2018-08-28T18:36:50.328Z,24.47
2018-08-28T18:39:54.070Z,24.34
2018-08-28T18:42:57.315Z,24.30
2018-08-28T18:46:00.616Z,24.13
2018-08-28T18:49:03.838Z,23.96
2018-08-28T18:52:07.138Z,23.87
2018-08-28T18:55:10.705Z,23.64
2018-08-28T18:58:14.039Z,23.50
2018-08-28T19:01:17.403Z,23.50
2018-08-28T19:04:20.660Z,23.34
2018-08-28T19:07:25.168Z,23.23
2018-08-28T19:10:29.349Z,23.18
2018-08-28T19:13:32.730Z,23.08
2018-08-28T19:16:35.956Z,22.96
2018-08-28T19:19:39.178Z,22.86
2018-08-28T19:22:42.590Z,22.73
2018-08-28T19:25:45.831Z,22.67
2018-08-28T19:28:50.416Z,22.67
2018-08-28T19:31:54.846Z,22.59
2018-08-28T19:34:58.008Z,22.48
2018-08-28T19:38:01.359Z,22.21
2018-08-28T19:41:04.612Z,22.00
2018-08-28T19:44:08.114Z,22.02
2018-08-28T19:47:11.323Z,22.02
2018-08-28T19:50:14.594Z,21.98
2018-08-28T19:53:17.744Z,21.77
2018-08-28T19:56:20.964Z,21.65
2018-08-28T19:59:24.348Z,21.68
2018-08-28T20:02:27.584Z,21.69
2018-08-28T20:05:30.916Z,21.68
2018-08-28T20:08:34.138Z,21.61
2018-08-28T20:11:37.483Z,21.54
2018-08-28T20:14:40.864Z,21.39
2018-08-28T20:17:44.071Z,21.34
2018-08-28T20:20:47.367Z,21.32
2018-08-28T20:23:56.641Z,21.32
2018-08-28T20:26:59.956Z,21.24
2018-08-28T20:30:03.219Z,21.17
2018-08-28T20:33:06.489Z,21.17
2018-08-28T20:36:09.771Z,21.11
2018-08-28T20:39:13.055Z,21.08
2018-08-28T20:42:16.388Z,21.13
2018-08-28T20:45:19.688Z,21.13
2018-08-28T20:48:23.066Z,21.03
2018-08-28T20:51:26.717Z,20.94
2018-08-28T20:54:30.056Z,20.84
2018-08-28T20:57:33.359Z,20.73
2018-08-28T21:00:37.116Z,20.66
2018-08-28T21:03:41.374Z,20.60
2018-08-28T21:06:44.653Z,20.56
2018-08-28T21:09:47.883Z,20.53
2018-08-28T21:12:51.667Z,20.54
2018-08-28T21:15:55.756Z,20.56
2018-08-28T21:18:59.083Z,20.52
2018-08-28T21:22:02.556Z,20.48
2018-08-28T21:25:05.801Z,20.48
2018-08-28T21:28:09.153Z,20.48
2018-08-28T21:31:12.398Z,20.48
2018-08-28T21:34:15.615Z,20.41
2018-08-28T21:37:18.991Z,20.41
2018-08-28T21:40:22.241Z,20.35
2018-08-28T21:43:26.545Z,20.26
2018-08-28T21:46:29.832Z,20.15
2018-08-28T21:49:33.247Z,20.17
2018-08-28T21:52:36.662Z,20.20
2018-08-28T21:55:39.958Z,20.14
2018-08-28T21:58:43.223Z,20.16
2018-08-28T22:01:46.609Z,20.11
2018-08-28T22:04:49.812Z,20.11
2018-08-28T22:07:57.201Z,19.98
2018-08-28T22:11:00.399Z,19.88
2018-08-28T22:14:03.812Z,19.69
2018-08-28T22:17:06.954Z,19.48
2018-08-28T22:20:10.563Z,19.33
2018-08-28T22:23:14.206Z,19.29
2018-08-28T22:26:17.338Z,19.14
2018-08-28T22:29:20.560Z,19.08
2018-08-28T22:32:24.762Z,18.94
2018-08-28T22:35:28.015Z,18.89
2018-08-28T22:38:31.686Z,18.85
2018-08-28T22:41:35.935Z,18.76
2018-08-28T22:44:43.850Z,18.69
2018-08-28T22:47:47.180Z,18.69
2018-08-28T22:50:50.457Z,18.70
2018-08-28T22:53:54.104Z,18.64
2018-08-28T22:56:57.327Z,18.60
2018-08-28T23:00:01.131Z,18.56
2018-08-28T23:03:04.362Z,18.53
2018-08-28T23:06:14.311Z,18.45
2018-08-28T23:09:17.595Z,18.48
2018-08-28T23:12:20.815Z,18.48
2018-08-28T23:15:25.168Z,18.47
2018-08-28T23:18:28.569Z,18.51
2018-08-28T23:21:31.906Z,18.54
2018-08-28T23:24:35.092Z,18.45
2018-08-28T23:27:38.280Z,18.28
2018-08-28T23:30:42.515Z,18.27
2018-08-28T23:33:45.852Z,18.21
2018-08-28T23:36:49.192Z,18.15
2018-08-28T23:39:52.454Z,18.12
2018-08-28T23:42:56.903Z,18.11
2018-08-28T23:46:00.111Z,18.03
2018-08-28T23:49:03.335Z,17.98
2018-08-28T23:52:06.644Z,17.99
2018-08-28T23:55:10.263Z,17.81
2018-08-28T23:58:13.515Z,17.70
